METAR Data
IDs: Format: Raw Decoded Include TAF

Data at: 1455 UTC 19 Aug 2019

KEGE 191356Z 00000KT 10SM CLR 10/M02 A3035 RMK AO2 SLP221 T01001017